sensor_id;sensor_type;location;lat;lon;timestamp;P1;durP1;ratioP1;P2;durP2;ratioP2
42338;SDS011;27993;45.392;10.918;2022-09-12T00:00:25;5.00;;;2.10;;
42338;SDS011;27993;45.392;10.918;2022-09-12T00:02:56;4.18;;;2.40;;
42338;SDS011;27993;45.392;10.918;2022-09-12T00:05:28;4.75;;;2.28;;
42338;SDS011;27993;45.392;10.918;2022-09-12T00:08:00;2.75;;;1.90;;
42338;SDS011;27993;45.392;10.918;2022-09-12T00:10:30;3.22;;;2.12;;
42338;SDS011;27993;45.392;10.918;2022-09-12T00:13:01;4.05;;;2.08;;
42338;SDS011;27993;45.392;10.918;2022-09-12T00:15:31;3.83;;;2.12;;
42338;SDS011;27993;45.392;10.918;2022-09-12T00:18:12;6.07;;;2.08;;
42338;SDS011;27993;45.392;10.918;2022-09-12T00:20:45;2.85;;;1.77;;
42338;SDS011;27993;45.392;10.918;2022-09-12T00:23:16;4.12;;;2.40;;
42338;SDS011;27993;45.392;10.918;2022-09-12T00:25:47;4.78;;;1.85;;
42338;SDS011;27993;45.392;10.918;2022-09-12T00:28:18;11.40;;;2.15;;
42338;SDS011;27993;45.392;10.918;2022-09-12T00:30:48;9.90;;;2.30;;
42338;SDS011;27993;45.392;10.918;2022-09-12T00:33:19;4.28;;;2.08;;
42338;SDS011;27993;45.392;10.918;2022-09-12T00:35:50;9.50;;;1.75;;
42338;SDS011;27993;45.392;10.918;2022-09-12T00:38:24;2.25;;;1.80;;
42338;SDS011;27993;45.392;10.918;2022-09-12T00:40:54;11.50;;;1.80;;
42338;SDS011;27993;45.392;10.918;2022-09-12T00:43:35;5.37;;;2.33;;
42338;SDS011;27993;45.392;10.918;2022-09-12T00:46:15;3.28;;;2.22;;
42338;SDS011;27993;45.392;10.918;2022-09-12T00:48:59;12.30;;;2.10;;
42338;SDS011;27993;45.392;10.918;2022-09-12T00:51:35;3.22;;;2.08;;
42338;SDS011;27993;45.392;10.918;2022-09-12T00:54:07;7.70;;;2.65;;
42338;SDS011;27993;45.392;10.918;2022-09-12T00:56:42;4.00;;;1.98;;
42338;SDS011;27993;45.392;10.918;2022-09-12T00:59:16;6.40;;;2.83;;
42338;SDS011;27993;45.392;10.918;2022-09-12T01:01:50;4.03;;;2.60;;
42338;SDS011;27993;45.392;10.918;2022-09-12T01:04:21;3.22;;;2.20;;
42338;SDS011;27993;45.392;10.918;2022-09-12T01:06:55;4.47;;;2.47;;
42338;SDS011;27993;45.392;10.918;2022-09-12T01:09:27;5.40;;;2.65;;
42338;SDS011;27993;45.392;10.918;2022-09-12T01:11:57;3.78;;;2.75;;
42338;SDS011;27993;45.392;10.918;2022-09-12T01:14:30;3.37;;;2.17;;
42338;SDS011;27993;45.392;10.918;2022-09-12T01:17:01;4.82;;;2.30;;
42338;SDS011;27993;45.392;10.918;2022-09-12T01:37:22;3.47;;;2.08;;
42338;SDS011;27993;45.392;10.918;2022-09-12T01:46:05;3.33;;;1.83;;
42338;SDS011;27993;45.392;10.918;2022-09-12T01:48:44;2.70;;;2.03;;
42338;SDS011;27993;45.392;10.918;2022-09-12T01:51:34;12.50;;;2.35;;
42338;SDS011;27993;45.392;10.918;2022-09-12T01:54:10;5.18;;;2.20;;
42338;SDS011;27993;45.392;10.918;2022-09-12T01:56:50;12.25;;;2.20;;
42338;SDS011;27993;45.392;10.918;2022-09-12T01:59:35;2.65;;;2.17;;
42338;SDS011;27993;45.392;10.918;2022-09-12T02:02:12;3.22;;;2.10;;
42338;SDS011;27993;45.392;10.918;2022-09-12T02:07:44;5.95;;;1.83;;
42338;SDS011;27993;45.392;10.918;2022-09-12T02:10:25;5.05;;;2.12;;
42338;SDS011;27993;45.392;10.918;2022-09-12T02:15:33;2.60;;;1.55;;
42338;SDS011;27993;45.392;10.918;2022-09-12T02:18:08;6.25;;;1.83;;
42338;SDS011;27993;45.392;10.918;2022-09-12T02:20:44;1.87;;;1.58;;
42338;SDS011;27993;45.392;10.918;2022-09-12T02:23:25;2.87;;;1.80;;
42338;SDS011;27993;45.392;10.918;2022-09-12T02:26:43;5.72;;;1.90;;
42338;SDS011;27993;45.392;10.918;2022-09-12T02:28:58;4.55;;;1.90;;
42338;SDS011;27993;45.392;10.918;2022-09-12T02:31:45;3.80;;;2.25;;
42338;SDS011;27993;45.392;10.918;2022-09-12T02:40:29;3.08;;;1.92;;
42338;SDS011;27993;45.392;10.918;2022-09-12T02:43:02;2.42;;;1.87;;
42338;SDS011;27993;45.392;10.918;2022-09-12T02:45:35;4.93;;;1.65;;
42338;SDS011;27993;45.392;10.918;2022-09-12T02:50:46;3.47;;;2.10;;
42338;SDS011;27993;45.392;10.918;2022-09-12T02:53:16;2.53;;;1.87;;
42338;SDS011;27993;45.392;10.918;2022-09-12T02:58:23;6.15;;;2.00;;
42338;SDS011;27993;45.392;10.918;2022-09-12T03:06:41;2.12;;;1.55;;
42338;SDS011;27993;45.392;10.918;2022-09-12T03:09:38;3.22;;;2.35;;
42338;SDS011;27993;45.392;10.918;2022-09-12T03:12:25;3.42;;;1.85;;
42338;SDS011;27993;45.392;10.918;2022-09-12T03:15:20;5.40;;;1.87;;
42338;SDS011;27993;45.392;10.918;2022-09-12T03:20:59;2.78;;;1.98;;
42338;SDS011;27993;45.392;10.918;2022-09-12T03:28:54;2.22;;;1.42;;
42338;SDS011;27993;45.392;10.918;2022-09-12T03:31:26;2.03;;;1.45;;
42338;SDS011;27993;45.392;10.918;2022-09-12T03:33:58;3.97;;;1.30;;
42338;SDS011;27993;45.392;10.918;2022-09-12T03:36:29;6.07;;;1.90;;
42338;SDS011;27993;45.392;10.918;2022-09-12T03:39:00;3.05;;;1.37;;
42338;SDS011;27993;45.392;10.918;2022-09-12T03:41:30;4.37;;;1.65;;
42338;SDS011;27993;45.392;10.918;2022-09-12T03:44:01;2.92;;;1.40;;
42338;SDS011;27993;45.392;10.918;2022-09-12T03:46:32;2.03;;;1.40;;
42338;SDS011;27993;45.392;10.918;2022-09-12T03:49:03;3.90;;;1.90;;
42338;SDS011;27993;45.392;10.918;2022-09-12T03:51:33;2.17;;;1.35;;
42338;SDS011;27993;45.392;10.918;2022-09-12T03:54:04;3.55;;;1.70;;
42338;SDS011;27993;45.392;10.918;2022-09-12T03:56:35;5.75;;;1.60;;
42338;SDS011;27993;45.392;10.918;2022-09-12T03:59:06;2.17;;;1.60;;
42338;SDS011;27993;45.392;10.918;2022-09-12T04:01:36;9.82;;;1.37;;
42338;SDS011;27993;45.392;10.918;2022-09-12T04:04:07;12.20;;;1.87;;
42338;SDS011;27993;45.392;10.918;2022-09-12T04:06:38;3.40;;;1.62;;
42338;SDS011;27993;45.392;10.918;2022-09-12T04:09:09;2.85;;;1.75;;
42338;SDS011;27993;45.392;10.918;2022-09-12T04:11:39;5.95;;;1.42;;
42338;SDS011;27993;45.392;10.918;2022-09-12T04:14:10;3.92;;;1.75;;
42338;SDS011;27993;45.392;10.918;2022-09-12T04:16:40;4.55;;;2.12;;
42338;SDS011;27993;45.392;10.918;2022-09-12T04:19:11;6.57;;;1.45;;
42338;SDS011;27993;45.392;10.918;2022-09-12T04:21:42;2.35;;;1.40;;
42338;SDS011;27993;45.392;10.918;2022-09-12T04:24:12;2.47;;;1.77;;
42338;SDS011;27993;45.392;10.918;2022-09-12T04:26:43;6.30;;;2.10;;
42338;SDS011;27993;45.392;10.918;2022-09-12T04:29:14;2.15;;;1.35;;
42338;SDS011;27993;45.392;10.918;2022-09-12T04:31:44;2.30;;;1.42;;
42338;SDS011;27993;45.392;10.918;2022-09-12T04:34:15;5.12;;;1.40;;
42338;SDS011;27993;45.392;10.918;2022-09-12T04:36:46;10.43;;;1.65;;
42338;SDS011;27993;45.392;10.918;2022-09-12T04:39:17;1.75;;;1.10;;
42338;SDS011;27993;45.392;10.918;2022-09-12T04:41:47;5.07;;;1.77;;
42338;SDS011;27993;45.392;10.918;2022-09-12T04:44:18;9.13;;;1.83;;
42338;SDS011;27993;45.392;10.918;2022-09-12T04:46:48;10.05;;;1.67;;
42338;SDS011;27993;45.392;10.918;2022-09-12T04:49:19;3.92;;;1.62;;
42338;SDS011;27993;45.392;10.918;2022-09-12T04:51:51;5.95;;;2.17;;
42338;SDS011;27993;45.392;10.918;2022-09-12T04:54:22;4.40;;;1.73;;
42338;SDS011;27993;45.392;10.918;2022-09-12T04:56:53;4.75;;;1.85;;
42338;SDS011;27993;45.392;10.918;2022-09-12T04:59:24;3.17;;;2.10;;
42338;SDS011;27993;45.392;10.918;2022-09-12T05:01:55;4.47;;;1.85;;
42338;SDS011;27993;45.392;10.918;2022-09-12T05:04:26;2.67;;;1.77;;
42338;SDS011;27993;45.392;10.918;2022-09-12T05:06:56;1.80;;;1.60;;
42338;SDS011;27993;45.392;10.918;2022-09-12T05:09:27;5.85;;;2.30;;
42338;SDS011;27993;45.392;10.918;2022-09-12T05:11:58;4.07;;;2.15;;
42338;SDS011;27993;45.392;10.918;2022-09-12T05:14:28;5.55;;;1.83;;
42338;SDS011;27993;45.392;10.918;2022-09-12T05:17:01;5.45;;;2.40;;
42338;SDS011;27993;45.392;10.918;2022-09-12T05:19:34;4.70;;;2.20;;
42338;SDS011;27993;45.392;10.918;2022-09-12T05:22:05;7.28;;;2.50;;
42338;SDS011;27993;45.392;10.918;2022-09-12T05:24:36;13.82;;;2.45;;
42338;SDS011;27993;45.392;10.918;2022-09-12T05:27:08;3.30;;;1.92;;
42338;SDS011;27993;45.392;10.918;2022-09-12T05:29:39;3.30;;;2.92;;
42338;SDS011;27993;45.392;10.918;2022-09-12T05:32:09;3.72;;;2.20;;
42338;SDS011;27993;45.392;10.918;2022-09-12T05:34:41;4.78;;;2.33;;
42338;SDS011;27993;45.392;10.918;2022-09-12T05:39:42;6.30;;;2.50;;
42338;SDS011;27993;45.392;10.918;2022-09-12T05:44:43;12.07;;;3.13;;
42338;SDS011;27993;45.392;10.918;2022-09-12T05:47:14;4.25;;;2.58;;
42338;SDS011;27993;45.392;10.918;2022-09-12T05:49:46;10.73;;;2.28;;
42338;SDS011;27993;45.392;10.918;2022-09-12T05:52:18;5.80;;;2.50;;
42338;SDS011;27993;45.392;10.918;2022-09-12T05:54:49;5.43;;;2.30;;
42338;SDS011;27993;45.392;10.918;2022-09-12T05:57:19;5.45;;;2.45;;
42338;SDS011;27993;45.392;10.918;2022-09-12T05:59:50;9.00;;;2.70;;
42338;SDS011;27993;45.392;10.918;2022-09-12T06:02:21;5.85;;;2.85;;
42338;SDS011;27993;45.392;10.918;2022-09-12T06:04:52;3.60;;;2.25;;
42338;SDS011;27993;45.392;10.918;2022-09-12T06:07:22;5.40;;;2.47;;
42338;SDS011;27993;45.392;10.918;2022-09-12T06:09:53;15.88;;;2.35;;
42338;SDS011;27993;45.392;10.918;2022-09-12T06:12:24;2.60;;;2.08;;
42338;SDS011;27993;45.392;10.918;2022-09-12T06:14:58;4.35;;;2.40;;
42338;SDS011;27993;45.392;10.918;2022-09-12T06:17:29;3.72;;;2.40;;
42338;SDS011;27993;45.392;10.918;2022-09-12T06:20:00;4.05;;;2.30;;
42338;SDS011;27993;45.392;10.918;2022-09-12T06:22:31;10.77;;;2.67;;
42338;SDS011;27993;45.392;10.918;2022-09-12T06:25:01;8.40;;;2.60;;
42338;SDS011;27993;45.392;10.918;2022-09-12T06:27:32;3.05;;;2.33;;
42338;SDS011;27993;45.392;10.918;2022-09-12T06:30:02;3.80;;;2.42;;
42338;SDS011;27993;45.392;10.918;2022-09-12T06:32:34;4.32;;;2.42;;
42338;SDS011;27993;45.392;10.918;2022-09-12T06:35:04;5.43;;;2.35;;
42338;SDS011;27993;45.392;10.918;2022-09-12T06:37:35;5.15;;;2.85;;
42338;SDS011;27993;45.392;10.918;2022-09-12T06:40:06;5.72;;;3.40;;
42338;SDS011;27993;45.392;10.918;2022-09-12T06:42:37;5.25;;;3.08;;
42338;SDS011;27993;45.392;10.918;2022-09-12T06:45:08;5.22;;;3.22;;
42338;SDS011;27993;45.392;10.918;2022-09-12T06:47:40;4.30;;;3.00;;
42338;SDS011;27993;45.392;10.918;2022-09-12T06:50:11;8.43;;;3.25;;
42338;SDS011;27993;45.392;10.918;2022-09-12T06:52:41;9.43;;;3.25;;
42338;SDS011;27993;45.392;10.918;2022-09-12T06:55:13;5.53;;;4.03;;
42338;SDS011;27993;45.392;10.918;2022-09-12T06:57:43;4.72;;;3.15;;
42338;SDS011;27993;45.392;10.918;2022-09-12T07:00:14;5.55;;;3.33;;
42338;SDS011;27993;45.392;10.918;2022-09-12T07:02:45;6.65;;;3.87;;
42338;SDS011;27993;45.392;10.918;2022-09-12T07:05:15;11.90;;;4.00;;
42338;SDS011;27993;45.392;10.918;2022-09-12T07:07:46;6.20;;;3.60;;
42338;SDS011;27993;45.392;10.918;2022-09-12T07:10:17;6.57;;;3.95;;
42338;SDS011;27993;45.392;10.918;2022-09-12T07:12:47;3.90;;;3.50;;
42338;SDS011;27993;45.392;10.918;2022-09-12T07:15:18;6.87;;;4.15;;
42338;SDS011;27993;45.392;10.918;2022-09-12T07:17:48;5.75;;;3.90;;
42338;SDS011;27993;45.392;10.918;2022-09-12T07:20:19;6.15;;;4.03;;
42338;SDS011;27993;45.392;10.918;2022-09-12T07:22:49;8.32;;;3.70;;
42338;SDS011;27993;45.392;10.918;2022-09-12T07:25:20;5.72;;;3.97;;
42338;SDS011;27993;45.392;10.918;2022-09-12T07:27:51;5.62;;;4.10;;
42338;SDS011;27993;45.392;10.918;2022-09-12T07:30:22;9.07;;;4.43;;
42338;SDS011;27993;45.392;10.918;2022-09-12T07:32:52;5.28;;;4.87;;
42338;SDS011;27993;45.392;10.918;2022-09-12T07:35:23;4.43;;;4.00;;
42338;SDS011;27993;45.392;10.918;2022-09-12T07:37:54;4.62;;;4.22;;
42338;SDS011;27993;45.392;10.918;2022-09-12T07:40:25;4.95;;;4.15;;
42338;SDS011;27993;45.392;10.918;2022-09-12T07:42:55;4.62;;;4.20;;
42338;SDS011;27993;45.392;10.918;2022-09-12T07:45:26;6.53;;;4.25;;
42338;SDS011;27993;45.392;10.918;2022-09-12T07:47:57;5.35;;;4.87;;
42338;SDS011;27993;45.392;10.918;2022-09-12T07:50:27;15.70;;;4.00;;
42338;SDS011;27993;45.392;10.918;2022-09-12T07:52:58;4.70;;;3.80;;
42338;SDS011;27993;45.392;10.918;2022-09-12T07:55:29;6.20;;;4.95;;
42338;SDS011;27993;45.392;10.918;2022-09-12T07:58:00;7.60;;;4.70;;
42338;SDS011;27993;45.392;10.918;2022-09-12T08:00:30;10.35;;;4.30;;
42338;SDS011;27993;45.392;10.918;2022-09-12T08:03:04;5.62;;;4.55;;
42338;SDS011;27993;45.392;10.918;2022-09-12T08:05:36;6.47;;;4.47;;
42338;SDS011;27993;45.392;10.918;2022-09-12T08:08:06;5.12;;;3.80;;
42338;SDS011;27993;45.392;10.918;2022-09-12T08:10:37;5.37;;;4.03;;
42338;SDS011;27993;45.392;10.918;2022-09-12T08:13:08;6.00;;;3.50;;
42338;SDS011;27993;45.392;10.918;2022-09-12T08:15:38;6.35;;;4.05;;
42338;SDS011;27993;45.392;10.918;2022-09-12T08:18:09;12.35;;;4.68;;
42338;SDS011;27993;45.392;10.918;2022-09-12T08:20:40;8.80;;;7.47;;
42338;SDS011;27993;45.392;10.918;2022-09-12T08:23:11;18.90;;;9.10;;
42338;SDS011;27993;45.392;10.918;2022-09-12T08:25:41;10.95;;;8.38;;
42338;SDS011;27993;45.392;10.918;2022-09-12T08:28:12;12.85;;;9.32;;
42338;SDS011;27993;45.392;10.918;2022-09-12T08:30:42;8.40;;;6.93;;
42338;SDS011;27993;45.392;10.918;2022-09-12T08:33:13;11.82;;;7.68;;
42338;SDS011;27993;45.392;10.918;2022-09-12T08:35:44;7.40;;;6.62;;
42338;SDS011;27993;45.392;10.918;2022-09-12T08:38:14;8.93;;;6.93;;
42338;SDS011;27993;45.392;10.918;2022-09-12T08:40:48;6.03;;;5.45;;
42338;SDS011;27993;45.392;10.918;2022-09-12T08:46:32;5.62;;;4.28;;
42338;SDS011;27993;45.392;10.918;2022-09-12T08:49:08;5.18;;;4.57;;
42338;SDS011;27993;45.392;10.918;2022-09-12T08:51:42;5.47;;;4.37;;
42338;SDS011;27993;45.392;10.918;2022-09-12T08:54:20;5.12;;;4.30;;
42338;SDS011;27993;45.392;10.918;2022-09-12T08:56:57;7.87;;;3.58;;
42338;SDS011;27993;45.392;10.918;2022-09-12T08:59:35;8.63;;;3.42;;
42338;SDS011;27993;45.392;10.918;2022-09-12T09:02:20;3.65;;;3.30;;
42338;SDS011;27993;45.392;10.918;2022-09-12T09:08:19;6.18;;;4.80;;
42338;SDS011;27993;45.392;10.918;2022-09-12T09:11:14;7.93;;;5.05;;
42338;SDS011;27993;45.392;10.918;2022-09-12T09:17:29;4.82;;;3.30;;
42338;SDS011;27993;45.392;10.918;2022-09-12T09:20:15;4.22;;;3.72;;
42338;SDS011;27993;45.392;10.918;2022-09-12T09:22:54;3.45;;;3.03;;
42338;SDS011;27993;45.392;10.918;2022-09-12T09:25:38;3.78;;;3.03;;
42338;SDS011;27993;45.392;10.918;2022-09-12T09:28:24;4.90;;;3.00;;
42338;SDS011;27993;45.392;10.918;2022-09-12T09:31:11;2.67;;;2.40;;
42338;SDS011;27993;45.392;10.918;2022-09-12T09:33:48;3.92;;;3.15;;
42338;SDS011;27993;45.392;10.918;2022-09-12T09:36:21;5.97;;;2.97;;
42338;SDS011;27993;45.392;10.918;2022-09-12T09:40:00;7.45;;;2.40;;
42338;SDS011;27993;45.392;10.918;2022-09-12T09:45:12;4.40;;;2.80;;
42338;SDS011;27993;45.392;10.918;2022-09-12T09:47:50;2.33;;;2.10;;
42338;SDS011;27993;45.392;10.918;2022-09-12T09:50:26;2.35;;;2.15;;
42338;SDS011;27993;45.392;10.918;2022-09-12T09:52:57;2.87;;;2.15;;
42338;SDS011;27993;45.392;10.918;2022-09-12T09:55:37;7.53;;;2.00;;
42338;SDS011;27993;45.392;10.918;2022-09-12T09:58:26;2.72;;;2.00;;
42338;SDS011;27993;45.392;10.918;2022-09-12T10:00:59;2.28;;;1.70;;
42338;SDS011;27993;45.392;10.918;2022-09-12T10:03:32;2.60;;;1.60;;
42338;SDS011;27993;45.392;10.918;2022-09-12T10:08:49;2.17;;;1.87;;
42338;SDS011;27993;45.392;10.918;2022-09-12T10:11:21;1.92;;;1.70;;
42338;SDS011;27993;45.392;10.918;2022-09-12T10:13:53;2.47;;;1.95;;
42338;SDS011;27993;45.392;10.918;2022-09-12T10:19:22;2.00;;;1.80;;
42338;SDS011;27993;45.392;10.918;2022-09-12T10:22:17;2.67;;;2.12;;
42338;SDS011;27993;45.392;10.918;2022-09-12T10:24:50;3.53;;;3.20;;
42338;SDS011;27993;45.392;10.918;2022-09-12T10:27:27;2.50;;;2.30;;
42338;SDS011;27993;45.392;10.918;2022-09-12T10:32:44;8.55;;;2.20;;
42338;SDS011;27993;45.392;10.918;2022-09-12T10:35:20;4.95;;;2.15;;
42338;SDS011;27993;45.392;10.918;2022-09-12T10:37:53;2.58;;;2.15;;
42338;SDS011;27993;45.392;10.918;2022-09-12T10:40:33;2.45;;;1.87;;
42338;SDS011;27993;45.392;10.918;2022-09-12T10:48:46;2.55;;;1.70;;
42338;SDS011;27993;45.392;10.918;2022-09-12T10:53:56;2.22;;;1.50;;
42338;SDS011;27993;45.392;10.918;2022-09-12T10:56:31;3.78;;;1.70;;
42338;SDS011;27993;45.392;10.918;2022-09-12T10:59:21;3.28;;;1.67;;
42338;SDS011;27993;45.392;10.918;2022-09-12T11:02:04;2.92;;;2.03;;
42338;SDS011;27993;45.392;10.918;2022-09-12T11:04:47;1.73;;;1.50;;
42338;SDS011;27993;45.392;10.918;2022-09-12T11:07:39;3.45;;;1.80;;
42338;SDS011;27993;45.392;10.918;2022-09-12T11:10:27;2.80;;;2.10;;
42338;SDS011;27993;45.392;10.918;2022-09-12T11:13:06;2.47;;;1.92;;
42338;SDS011;27993;45.392;10.918;2022-09-12T11:30:49;4.37;;;2.12;;
42338;SDS011;27993;45.392;10.918;2022-09-12T11:33:51;8.68;;;2.30;;
42338;SDS011;27993;45.392;10.918;2022-09-12T11:41:28;4.07;;;2.33;;
42338;SDS011;27993;45.392;10.918;2022-09-12T11:44:24;1.95;;;1.60;;
42338;SDS011;27993;45.392;10.918;2022-09-12T11:47:15;2.85;;;1.62;;
42338;SDS011;27993;45.392;10.918;2022-09-12T11:49:50;4.60;;;2.25;;
42338;SDS011;27993;45.392;10.918;2022-09-12T11:52:24;2.87;;;1.95;;
42338;SDS011;27993;45.392;10.918;2022-09-12T11:55:05;3.03;;;2.00;;
42338;SDS011;27993;45.392;10.918;2022-09-12T12:03:44;4.62;;;2.62;;
42338;SDS011;27993;45.392;10.918;2022-09-12T12:06:17;3.28;;;2.45;;
42338;SDS011;27993;45.392;10.918;2022-09-12T12:09:06;8.73;;;2.27;;
42338;SDS011;27993;45.392;10.918;2022-09-12T12:11:50;3.35;;;2.12;;
42338;SDS011;27993;45.392;10.918;2022-09-12T12:14:41;5.03;;;2.28;;
42338;SDS011;27993;45.392;10.918;2022-09-12T12:17:18;4.57;;;2.83;;
42338;SDS011;27993;45.392;10.918;2022-09-12T12:19:58;6.40;;;2.40;;
42338;SDS011;27993;45.392;10.918;2022-09-12T12:22:32;3.33;;;2.60;;
42338;SDS011;27993;45.392;10.918;2022-09-12T12:25:15;7.93;;;2.15;;
42338;SDS011;27993;45.392;10.918;2022-09-12T12:27:56;6.43;;;2.37;;
42338;SDS011;27993;45.392;10.918;2022-09-12T12:33:01;2.97;;;1.92;;
42338;SDS011;27993;45.392;10.918;2022-09-12T12:35:42;4.35;;;2.15;;
42338;SDS011;27993;45.392;10.918;2022-09-12T12:46:19;6.55;;;2.40;;
42338;SDS011;27993;45.392;10.918;2022-09-12T12:51:42;5.72;;;2.65;;
42338;SDS011;27993;45.392;10.918;2022-09-12T12:57:04;3.33;;;2.70;;
42338;SDS011;27993;45.392;10.918;2022-09-12T13:00:07;4.72;;;2.80;;
42338;SDS011;27993;45.392;10.918;2022-09-12T13:05:43;7.00;;;2.53;;
42338;SDS011;27993;45.392;10.918;2022-09-12T13:10:50;4.35;;;2.85;;
42338;SDS011;27993;45.392;10.918;2022-09-12T13:14:30;4.03;;;2.20;;
42338;SDS011;27993;45.392;10.918;2022-09-12T13:16:50;4.87;;;2.78;;
42338;SDS011;27993;45.392;10.918;2022-09-12T13:19:30;2.95;;;2.50;;
42338;SDS011;27993;45.392;10.918;2022-09-12T13:22:06;3.20;;;2.30;;
42338;SDS011;27993;45.392;10.918;2022-09-12T13:24:44;3.53;;;2.08;;
42338;SDS011;27993;45.392;10.918;2022-09-12T13:27:22;3.17;;;2.10;;
42338;SDS011;27993;45.392;10.918;2022-09-12T13:30:07;4.07;;;2.60;;
42338;SDS011;27993;45.392;10.918;2022-09-12T13:32:42;5.65;;;2.55;;
42338;SDS011;27993;45.392;10.918;2022-09-12T13:35:26;4.50;;;2.83;;
42338;SDS011;27993;45.392;10.918;2022-09-12T13:41:17;4.97;;;2.53;;
42338;SDS011;27993;45.392;10.918;2022-09-12T13:44:01;2.42;;;2.15;;
42338;SDS011;27993;45.392;10.918;2022-09-12T13:46:33;9.57;;;2.58;;
42338;SDS011;27993;45.392;10.918;2022-09-12T13:49:06;4.15;;;2.62;;
42338;SDS011;27993;45.392;10.918;2022-09-12T13:51:57;3.55;;;2.25;;
42338;SDS011;27993;45.392;10.918;2022-09-12T13:54:31;4.35;;;3.10;;
42338;SDS011;27993;45.392;10.918;2022-09-12T13:57:16;3.58;;;2.35;;
42338;SDS011;27993;45.392;10.918;2022-09-12T14:00:03;4.03;;;2.10;;
42338;SDS011;27993;45.392;10.918;2022-09-12T14:02:38;3.08;;;2.35;;
42338;SDS011;27993;45.392;10.918;2022-09-12T14:05:10;5.82;;;2.03;;
42338;SDS011;27993;45.392;10.918;2022-09-12T14:07:54;5.00;;;2.12;;
42338;SDS011;27993;45.392;10.918;2022-09-12T14:10:35;6.40;;;2.55;;
42338;SDS011;27993;45.392;10.918;2022-09-12T14:13:15;4.12;;;2.70;;
42338;SDS011;27993;45.392;10.918;2022-09-12T14:15:53;4.57;;;2.17;;
42338;SDS011;27993;45.392;10.918;2022-09-12T14:18:26;6.72;;;2.15;;
42338;SDS011;27993;45.392;10.918;2022-09-12T14:21:01;4.80;;;2.50;;
42338;SDS011;27993;45.392;10.918;2022-09-12T14:23:54;10.30;;;2.60;;
42338;SDS011;27993;45.392;10.918;2022-09-12T14:26:27;5.95;;;2.28;;
42338;SDS011;27993;45.392;10.918;2022-09-12T14:29:03;3.92;;;2.42;;
42338;SDS011;27993;45.392;10.918;2022-09-12T14:31:36;4.90;;;3.03;;
42338;SDS011;27993;45.392;10.918;2022-09-12T14:34:12;8.68;;;2.58;;
42338;SDS011;27993;45.392;10.918;2022-09-12T14:36:45;5.40;;;2.42;;
42338;SDS011;27993;45.392;10.918;2022-09-12T14:39:31;4.78;;;2.75;;
42338;SDS011;27993;45.392;10.918;2022-09-12T14:42:09;4.43;;;2.97;;
42338;SDS011;27993;45.392;10.918;2022-09-12T14:47:22;4.78;;;2.37;;
42338;SDS011;27993;45.392;10.918;2022-09-12T14:49:54;5.90;;;2.70;;
42338;SDS011;27993;45.392;10.918;2022-09-12T14:52:26;4.80;;;2.42;;
42338;SDS011;27993;45.392;10.918;2022-09-12T14:55:00;5.40;;;2.75;;
42338;SDS011;27993;45.392;10.918;2022-09-12T14:58:05;5.47;;;2.15;;
42338;SDS011;27993;45.392;10.918;2022-09-12T15:03:48;5.30;;;2.25;;
42338;SDS011;27993;45.392;10.918;2022-09-12T15:06:31;4.65;;;1.98;;
42338;SDS011;27993;45.392;10.918;2022-09-12T15:09:07;2.17;;;1.98;;
42338;SDS011;27993;45.392;10.918;2022-09-12T15:11:42;4.05;;;2.72;;
42338;SDS011;27993;45.392;10.918;2022-09-12T15:14:12;3.75;;;2.28;;
42338;SDS011;27993;45.392;10.918;2022-09-12T15:16:44;3.05;;;2.65;;
42338;SDS011;27993;45.392;10.918;2022-09-12T15:19:14;4.22;;;2.03;;
42338;SDS011;27993;45.392;10.918;2022-09-12T15:21:45;6.97;;;2.40;;
42338;SDS011;27993;45.392;10.918;2022-09-12T15:24:16;3.47;;;1.85;;
42338;SDS011;27993;45.392;10.918;2022-09-12T15:26:46;12.50;;;4.85;;
42338;SDS011;27993;45.392;10.918;2022-09-12T15:29:17;5.03;;;2.78;;
42338;SDS011;27993;45.392;10.918;2022-09-12T15:31:47;7.80;;;2.58;;
42338;SDS011;27993;45.392;10.918;2022-09-12T15:34:20;3.33;;;2.25;;
42338;SDS011;27993;45.392;10.918;2022-09-12T15:36:51;3.60;;;2.00;;
42338;SDS011;27993;45.392;10.918;2022-09-12T15:39:21;2.90;;;2.12;;
42338;SDS011;27993;45.392;10.918;2022-09-12T15:41:52;3.72;;;2.12;;
42338;SDS011;27993;45.392;10.918;2022-09-12T15:44:22;5.97;;;2.45;;
42338;SDS011;27993;45.392;10.918;2022-09-12T15:46:53;7.45;;;2.60;;
42338;SDS011;27993;45.392;10.918;2022-09-12T15:49:24;3.83;;;2.08;;
42338;SDS011;27993;45.392;10.918;2022-09-12T15:51:54;3.55;;;2.37;;
42338;SDS011;27993;45.392;10.918;2022-09-12T15:54:25;3.08;;;2.40;;
42338;SDS011;27993;45.392;10.918;2022-09-12T15:56:55;3.50;;;2.20;;
42338;SDS011;27993;45.392;10.918;2022-09-12T15:59:26;6.95;;;2.30;;
42338;SDS011;27993;45.392;10.918;2022-09-12T16:01:56;3.30;;;2.37;;
42338;SDS011;27993;45.392;10.918;2022-09-12T16:04:28;5.10;;;2.37;;
42338;SDS011;27993;45.392;10.918;2022-09-12T16:06:59;5.15;;;2.78;;
42338;SDS011;27993;45.392;10.918;2022-09-12T16:09:30;6.50;;;2.12;;
42338;SDS011;27993;45.392;10.918;2022-09-12T16:12:00;3.90;;;3.22;;
42338;SDS011;27993;45.392;10.918;2022-09-12T16:14:31;7.57;;;2.80;;
42338;SDS011;27993;45.392;10.918;2022-09-12T16:17:02;3.45;;;2.17;;
42338;SDS011;27993;45.392;10.918;2022-09-12T16:19:32;4.80;;;2.22;;
42338;SDS011;27993;45.392;10.918;2022-09-12T16:22:03;5.28;;;1.95;;
42338;SDS011;27993;45.392;10.918;2022-09-12T16:24:33;3.60;;;2.10;;
42338;SDS011;27993;45.392;10.918;2022-09-12T16:27:04;4.95;;;2.22;;
42338;SDS011;27993;45.392;10.918;2022-09-12T16:29:35;3.05;;;2.22;;
42338;SDS011;27993;45.392;10.918;2022-09-12T16:32:05;2.15;;;1.83;;
42338;SDS011;27993;45.392;10.918;2022-09-12T16:34:36;6.78;;;2.40;;
42338;SDS011;27993;45.392;10.918;2022-09-12T16:37:07;7.50;;;2.37;;
42338;SDS011;27993;45.392;10.918;2022-09-12T16:39:37;7.12;;;2.15;;
42338;SDS011;27993;45.392;10.918;2022-09-12T16:42:08;3.17;;;2.12;;
42338;SDS011;27993;45.392;10.918;2022-09-12T16:44:38;9.73;;;2.25;;
42338;SDS011;27993;45.392;10.918;2022-09-12T16:47:09;4.05;;;2.42;;
42338;SDS011;27993;45.392;10.918;2022-09-12T16:49:40;3.72;;;2.15;;
42338;SDS011;27993;45.392;10.918;2022-09-12T16:52:10;2.67;;;2.28;;
42338;SDS011;27993;45.392;10.918;2022-09-12T16:54:45;8.90;;;2.60;;
42338;SDS011;27993;45.392;10.918;2022-09-12T16:57:15;5.68;;;2.12;;
42338;SDS011;27993;45.392;10.918;2022-09-12T16:59:46;3.08;;;2.45;;
42338;SDS011;27993;45.392;10.918;2022-09-12T17:02:17;3.05;;;2.10;;
42338;SDS011;27993;45.392;10.918;2022-09-12T17:04:47;3.78;;;2.30;;
42338;SDS011;27993;45.392;10.918;2022-09-12T17:07:18;3.80;;;2.08;;
42338;SDS011;27993;45.392;10.918;2022-09-12T17:09:48;2.33;;;2.12;;
42338;SDS011;27993;45.392;10.918;2022-09-12T17:12:20;4.45;;;2.10;;
42338;SDS011;27993;45.392;10.918;2022-09-12T17:14:52;3.80;;;2.85;;
42338;SDS011;27993;45.392;10.918;2022-09-12T17:17:23;5.22;;;2.67;;
42338;SDS011;27993;45.392;10.918;2022-09-12T17:19:54;3.72;;;2.60;;
42338;SDS011;27993;45.392;10.918;2022-09-12T17:22:24;4.00;;;2.78;;
42338;SDS011;27993;45.392;10.918;2022-09-12T17:24:55;5.03;;;3.20;;
42338;SDS011;27993;45.392;10.918;2022-09-12T17:27:25;6.25;;;2.78;;
42338;SDS011;27993;45.392;10.918;2022-09-12T17:29:56;5.47;;;2.90;;
42338;SDS011;27993;45.392;10.918;2022-09-12T17:32:26;7.43;;;3.30;;
42338;SDS011;27993;45.392;10.918;2022-09-12T17:34:57;7.12;;;3.08;;
42338;SDS011;27993;45.392;10.918;2022-09-12T17:37:29;5.05;;;2.60;;
42338;SDS011;27993;45.392;10.918;2022-09-12T17:39:59;2.80;;;2.28;;
42338;SDS011;27993;45.392;10.918;2022-09-12T17:42:31;2.83;;;2.35;;